sensor_id;sensor_type;location;lat;lon;timestamp;P1;durP1;ratioP1;P2;durP2;ratioP2
17141;SDS011;32805;53.556;9.944;2024-01-30T00:00:28;9.07;;;7.95;;
17141;SDS011;32805;53.556;9.944;2024-01-30T00:02:56;10.35;;;7.93;;
17141;SDS011;32805;53.556;9.944;2024-01-30T00:05:23;10.20;;;7.47;;
17141;SDS011;32805;53.556;9.944;2024-01-30T00:07:51;9.07;;;7.30;;
17141;SDS011;32805;53.556;9.944;2024-01-30T00:10:19;9.00;;;7.25;;
17141;SDS011;32805;53.556;9.944;2024-01-30T00:12:46;13.02;;;8.27;;
17141;SDS011;32805;53.556;9.944;2024-01-30T00:15:14;11.50;;;8.30;;
17141;SDS011;32805;53.556;9.944;2024-01-30T00:17:43;9.68;;;7.63;;
17141;SDS011;32805;53.556;9.944;2024-01-30T00:20:11;9.30;;;7.82;;
17141;SDS011;32805;53.556;9.944;2024-01-30T00:22:38;11.85;;;7.50;;
17141;SDS011;32805;53.556;9.944;2024-01-30T00:25:06;9.77;;;7.40;;
17141;SDS011;32805;53.556;9.944;2024-01-30T00:27:33;10.10;;;7.65;;
17141;SDS011;32805;53.556;9.944;2024-01-30T00:30:01;9.45;;;7.40;;
17141;SDS011;32805;53.556;9.944;2024-01-30T00:32:30;11.45;;;7.93;;
17141;SDS011;32805;53.556;9.944;2024-01-30T00:34:59;10.43;;;7.93;;
17141;SDS011;32805;53.556;9.944;2024-01-30T00:37:26;9.98;;;8.05;;
17141;SDS011;32805;53.556;9.944;2024-01-30T00:39:54;9.00;;;7.07;;
17141;SDS011;32805;53.556;9.944;2024-01-30T00:42:22;10.07;;;7.93;;
17141;SDS011;32805;53.556;9.944;2024-01-30T00:44:50;10.82;;;7.57;;
17141;SDS011;32805;53.556;9.944;2024-01-30T00:47:17;11.20;;;7.70;;
17141;SDS011;32805;53.556;9.944;2024-01-30T00:49:45;9.98;;;7.10;;
17141;SDS011;32805;53.556;9.944;2024-01-30T00:52:14;9.90;;;7.22;;
17141;SDS011;32805;53.556;9.944;2024-01-30T00:54:42;9.75;;;7.03;;
17141;SDS011;32805;53.556;9.944;2024-01-30T00:57:09;10.05;;;7.43;;
17141;SDS011;32805;53.556;9.944;2024-01-30T00:59:37;11.43;;;7.20;;
17141;SDS011;32805;53.556;9.944;2024-01-30T01:02:04;9.93;;;7.30;;
17141;SDS011;32805;53.556;9.944;2024-01-30T01:04:32;9.32;;;7.38;;
17141;SDS011;32805;53.556;9.944;2024-01-30T01:06:59;9.82;;;6.93;;
17141;SDS011;32805;53.556;9.944;2024-01-30T01:09:28;9.93;;;7.60;;
17141;SDS011;32805;53.556;9.944;2024-01-30T01:11:56;8.75;;;7.13;;
17141;SDS011;32805;53.556;9.944;2024-01-30T01:14:23;9.40;;;7.28;;
17141;SDS011;32805;53.556;9.944;2024-01-30T01:16:51;9.60;;;6.78;;
17141;SDS011;32805;53.556;9.944;2024-01-30T01:19:19;10.60;;;7.13;;
17141;SDS011;32805;53.556;9.944;2024-01-30T01:21:50;9.98;;;6.85;;
17141;SDS011;32805;53.556;9.944;2024-01-30T01:24:18;9.93;;;7.45;;
17141;SDS011;32805;53.556;9.944;2024-01-30T01:26:47;11.07;;;7.38;;
17141;SDS011;32805;53.556;9.944;2024-01-30T01:29:14;10.15;;;7.00;;
17141;SDS011;32805;53.556;9.944;2024-01-30T01:31:42;9.43;;;7.03;;
17141;SDS011;32805;53.556;9.944;2024-01-30T01:34:10;11.18;;;7.60;;
17141;SDS011;32805;53.556;9.944;2024-01-30T01:36:38;9.57;;;7.07;;
17141;SDS011;32805;53.556;9.944;2024-01-30T01:39:06;8.82;;;6.97;;
17141;SDS011;32805;53.556;9.944;2024-01-30T01:41:34;11.18;;;7.25;;
17141;SDS011;32805;53.556;9.944;2024-01-30T01:44:03;9.60;;;6.68;;
17141;SDS011;32805;53.556;9.944;2024-01-30T01:46:32;9.52;;;7.00;;
17141;SDS011;32805;53.556;9.944;2024-01-30T01:49:00;9.25;;;6.90;;
17141;SDS011;32805;53.556;9.944;2024-01-30T01:51:30;9.52;;;7.35;;
17141;SDS011;32805;53.556;9.944;2024-01-30T01:53:58;9.10;;;6.82;;
17141;SDS011;32805;53.556;9.944;2024-01-30T01:56:28;9.18;;;6.78;;
17141;SDS011;32805;53.556;9.944;2024-01-30T01:58:56;8.88;;;6.57;;
17141;SDS011;32805;53.556;9.944;2024-01-30T02:01:28;7.63;;;6.80;;
17141;SDS011;32805;53.556;9.944;2024-01-30T02:03:56;8.10;;;6.35;;
17141;SDS011;32805;53.556;9.944;2024-01-30T02:06:23;7.35;;;5.97;;
17141;SDS011;32805;53.556;9.944;2024-01-30T02:08:51;9.32;;;6.53;;
17141;SDS011;32805;53.556;9.944;2024-01-30T02:11:18;8.93;;;7.10;;
17141;SDS011;32805;53.556;9.944;2024-01-30T02:13:47;9.70;;;6.68;;
17141;SDS011;32805;53.556;9.944;2024-01-30T02:16:14;9.18;;;6.55;;
17141;SDS011;32805;53.556;9.944;2024-01-30T02:18:43;8.05;;;6.50;;
17141;SDS011;32805;53.556;9.944;2024-01-30T02:21:15;9.43;;;6.50;;
17141;SDS011;32805;53.556;9.944;2024-01-30T02:23:43;8.23;;;6.65;;
17141;SDS011;32805;53.556;9.944;2024-01-30T02:26:10;7.30;;;6.10;;
17141;SDS011;32805;53.556;9.944;2024-01-30T02:28:38;8.55;;;6.03;;
17141;SDS011;32805;53.556;9.944;2024-01-30T02:31:05;7.93;;;6.47;;
17141;SDS011;32805;53.556;9.944;2024-01-30T02:33:33;8.48;;;6.80;;
17141;SDS011;32805;53.556;9.944;2024-01-30T02:36:00;9.05;;;6.40;;
17141;SDS011;32805;53.556;9.944;2024-01-30T02:38:29;8.55;;;6.40;;
17141;SDS011;32805;53.556;9.944;2024-01-30T02:40:57;8.48;;;6.57;;
17141;SDS011;32805;53.556;9.944;2024-01-30T02:43:24;10.07;;;6.28;;
17141;SDS011;32805;53.556;9.944;2024-01-30T02:45:52;9.30;;;6.85;;
17141;SDS011;32805;53.556;9.944;2024-01-30T02:48:19;8.43;;;6.90;;
17141;SDS011;32805;53.556;9.944;2024-01-30T02:50:47;9.38;;;6.90;;
17141;SDS011;32805;53.556;9.944;2024-01-30T02:53:14;10.13;;;6.55;;
17141;SDS011;32805;53.556;9.944;2024-01-30T02:55:43;9.60;;;6.70;;
17141;SDS011;32805;53.556;9.944;2024-01-30T02:58:11;11.48;;;6.90;;
17141;SDS011;32805;53.556;9.944;2024-01-30T03:00:38;8.75;;;6.97;;
17141;SDS011;32805;53.556;9.944;2024-01-30T03:03:06;9.18;;;6.47;;
17141;SDS011;32805;53.556;9.944;2024-01-30T03:05:33;9.88;;;7.05;;
17141;SDS011;32805;53.556;9.944;2024-01-30T03:08:00;11.07;;;7.15;;
17141;SDS011;32805;53.556;9.944;2024-01-30T03:10:28;10.68;;;6.88;;
17141;SDS011;32805;53.556;9.944;2024-01-30T03:12:57;9.02;;;6.68;;
17141;SDS011;32805;53.556;9.944;2024-01-30T03:15:25;11.23;;;6.70;;
17141;SDS011;32805;53.556;9.944;2024-01-30T03:17:53;8.85;;;6.18;;
17141;SDS011;32805;53.556;9.944;2024-01-30T03:20:20;9.63;;;6.78;;
17141;SDS011;32805;53.556;9.944;2024-01-30T03:22:48;11.27;;;6.47;;
17141;SDS011;32805;53.556;9.944;2024-01-30T03:25:15;9.95;;;6.75;;
17141;SDS011;32805;53.556;9.944;2024-01-30T03:27:43;9.57;;;6.72;;
17141;SDS011;32805;53.556;9.944;2024-01-30T03:30:12;9.65;;;6.95;;
17141;SDS011;32805;53.556;9.944;2024-01-30T03:32:39;7.43;;;6.50;;
17141;SDS011;32805;53.556;9.944;2024-01-30T03:35:07;10.23;;;7.63;;
17141;SDS011;32805;53.556;9.944;2024-01-30T03:37:35;10.23;;;7.15;;
17141;SDS011;32805;53.556;9.944;2024-01-30T03:40:03;11.95;;;7.47;;
17141;SDS011;32805;53.556;9.944;2024-01-30T03:42:30;10.13;;;6.50;;
17141;SDS011;32805;53.556;9.944;2024-01-30T03:44:58;8.90;;;6.82;;
17141;SDS011;32805;53.556;9.944;2024-01-30T03:47:27;8.15;;;7.05;;
17141;SDS011;32805;53.556;9.944;2024-01-30T03:49:54;10.43;;;7.40;;
17141;SDS011;32805;53.556;9.944;2024-01-30T03:52:22;10.65;;;7.45;;
17141;SDS011;32805;53.556;9.944;2024-01-30T03:54:49;10.60;;;7.20;;
17141;SDS011;32805;53.556;9.944;2024-01-30T03:57:17;11.90;;;7.28;;
17141;SDS011;32805;53.556;9.944;2024-01-30T03:59:44;13.35;;;7.63;;
17141;SDS011;32805;53.556;9.944;2024-01-30T04:02:11;10.82;;;7.50;;
17141;SDS011;32805;53.556;9.944;2024-01-30T04:04:41;14.00;;;7.95;;
17141;SDS011;32805;53.556;9.944;2024-01-30T04:07:08;8.65;;;7.55;;
17141;SDS011;32805;53.556;9.944;2024-01-30T04:09:36;11.48;;;7.63;;
17141;SDS011;32805;53.556;9.944;2024-01-30T04:12:03;11.18;;;7.75;;
17141;SDS011;32805;53.556;9.944;2024-01-30T04:14:31;10.35;;;7.55;;
17141;SDS011;32805;53.556;9.944;2024-01-30T04:16:58;11.88;;;7.75;;
17141;SDS011;32805;53.556;9.944;2024-01-30T04:19:26;8.27;;;7.13;;
17141;SDS011;32805;53.556;9.944;2024-01-30T04:21:55;8.82;;;6.97;;
17141;SDS011;32805;53.556;9.944;2024-01-30T04:24:22;14.13;;;7.47;;
17141;SDS011;32805;53.556;9.944;2024-01-30T04:26:50;10.85;;;7.97;;
17141;SDS011;32805;53.556;9.944;2024-01-30T04:29:17;10.23;;;7.13;;
17141;SDS011;32805;53.556;9.944;2024-01-30T04:31:45;14.10;;;8.43;;
17141;SDS011;32805;53.556;9.944;2024-01-30T04:34:13;10.23;;;8.40;;
17141;SDS011;32805;53.556;9.944;2024-01-30T04:36:43;10.40;;;8.10;;
17141;SDS011;32805;53.556;9.944;2024-01-30T04:39:12;13.70;;;7.88;;
17141;SDS011;32805;53.556;9.944;2024-01-30T04:41:40;13.60;;;7.30;;
17141;SDS011;32805;53.556;9.944;2024-01-30T04:44:07;9.35;;;7.47;;
17141;SDS011;32805;53.556;9.944;2024-01-30T04:46:34;12.13;;;8.60;;
17141;SDS011;32805;53.556;9.944;2024-01-30T04:49:02;11.07;;;8.02;;
17141;SDS011;32805;53.556;9.944;2024-01-30T04:51:30;10.55;;;7.95;;
17141;SDS011;32805;53.556;9.944;2024-01-30T04:53:58;12.95;;;8.18;;
17141;SDS011;32805;53.556;9.944;2024-01-30T04:56:27;10.20;;;8.43;;
17141;SDS011;32805;53.556;9.944;2024-01-30T04:58:54;10.18;;;7.95;;
17141;SDS011;32805;53.556;9.944;2024-01-30T05:01:22;13.23;;;8.82;;
17141;SDS011;32805;53.556;9.944;2024-01-30T05:03:50;9.68;;;8.00;;
17141;SDS011;32805;53.556;9.944;2024-01-30T05:06:23;11.63;;;8.95;;
17141;SDS011;32805;53.556;9.944;2024-01-30T05:08:51;10.65;;;8.32;;
17141;SDS011;32805;53.556;9.944;2024-01-30T05:11:18;9.45;;;8.32;;
17141;SDS011;32805;53.556;9.944;2024-01-30T05:13:47;11.60;;;8.85;;
17141;SDS011;32805;53.556;9.944;2024-01-30T05:16:15;11.48;;;8.60;;
17141;SDS011;32805;53.556;9.944;2024-01-30T05:18:42;11.02;;;8.05;;
17141;SDS011;32805;53.556;9.944;2024-01-30T05:21:10;10.23;;;8.07;;
17141;SDS011;32805;53.556;9.944;2024-01-30T05:23:37;14.38;;;8.48;;
17141;SDS011;32805;53.556;9.944;2024-01-30T05:26:05;11.88;;;9.02;;
17141;SDS011;32805;53.556;9.944;2024-01-30T05:28:33;11.68;;;8.15;;
17141;SDS011;32805;53.556;9.944;2024-01-30T05:31:01;10.18;;;8.35;;
17141;SDS011;32805;53.556;9.944;2024-01-30T05:33:29;12.13;;;8.70;;
17141;SDS011;32805;53.556;9.944;2024-01-30T05:35:57;10.50;;;8.63;;
17141;SDS011;32805;53.556;9.944;2024-01-30T05:38:24;11.90;;;9.05;;
17141;SDS011;32805;53.556;9.944;2024-01-30T05:40:52;10.52;;;8.38;;
17141;SDS011;32805;53.556;9.944;2024-01-30T05:43:20;13.25;;;9.50;;
17141;SDS011;32805;53.556;9.944;2024-01-30T05:45:47;13.20;;;8.75;;
17141;SDS011;32805;53.556;9.944;2024-01-30T05:48:16;10.77;;;8.50;;
17141;SDS011;32805;53.556;9.944;2024-01-30T05:50:44;11.75;;;9.43;;
17141;SDS011;32805;53.556;9.944;2024-01-30T05:53:11;14.82;;;9.85;;
17141;SDS011;32805;53.556;9.944;2024-01-30T05:55:39;12.27;;;8.60;;
17141;SDS011;32805;53.556;9.944;2024-01-30T05:58:06;13.30;;;9.43;;
17141;SDS011;32805;53.556;9.944;2024-01-30T06:00:34;13.90;;;9.10;;
17141;SDS011;32805;53.556;9.944;2024-01-30T06:03:01;14.02;;;9.07;;
17141;SDS011;32805;53.556;9.944;2024-01-30T06:05:30;11.48;;;8.82;;
17141;SDS011;32805;53.556;9.944;2024-01-30T06:07:58;14.52;;;9.27;;
17141;SDS011;32805;53.556;9.944;2024-01-30T06:10:25;13.57;;;9.93;;
17141;SDS011;32805;53.556;9.944;2024-01-30T06:12:53;13.63;;;9.73;;
17141;SDS011;32805;53.556;9.944;2024-01-30T06:15:21;12.48;;;9.55;;
17141;SDS011;32805;53.556;9.944;2024-01-30T06:17:48;11.77;;;9.07;;
17141;SDS011;32805;53.556;9.944;2024-01-30T06:20:16;12.48;;;8.85;;
17141;SDS011;32805;53.556;9.944;2024-01-30T06:22:45;12.75;;;9.50;;
17141;SDS011;32805;53.556;9.944;2024-01-30T06:25:13;14.50;;;9.15;;
17141;SDS011;32805;53.556;9.944;2024-01-30T06:27:40;12.80;;;9.68;;
17141;SDS011;32805;53.556;9.944;2024-01-30T06:30:08;11.85;;;9.60;;
17141;SDS011;32805;53.556;9.944;2024-01-30T06:32:36;15.50;;;9.73;;
17141;SDS011;32805;53.556;9.944;2024-01-30T06:35:04;16.45;;;9.70;;
17141;SDS011;32805;53.556;9.944;2024-01-30T06:37:35;11.63;;;9.25;;
17141;SDS011;32805;53.556;9.944;2024-01-30T06:40:04;15.82;;;10.70;;
17141;SDS011;32805;53.556;9.944;2024-01-30T06:42:32;10.80;;;9.13;;
17141;SDS011;32805;53.556;9.944;2024-01-30T06:44:59;13.07;;;9.70;;
17141;SDS011;32805;53.556;9.944;2024-01-30T06:47:27;12.57;;;9.60;;
17141;SDS011;32805;53.556;9.944;2024-01-30T06:49:55;12.50;;;10.43;;
17141;SDS011;32805;53.556;9.944;2024-01-30T06:52:22;13.10;;;9.65;;
17141;SDS011;32805;53.556;9.944;2024-01-30T06:54:50;12.30;;;9.70;;
17141;SDS011;32805;53.556;9.944;2024-01-30T06:57:19;14.60;;;10.15;;
17141;SDS011;32805;53.556;9.944;2024-01-30T06:59:46;13.82;;;9.60;;
17141;SDS011;32805;53.556;9.944;2024-01-30T07:02:14;15.27;;;9.88;;
17141;SDS011;32805;53.556;9.944;2024-01-30T07:04:42;15.30;;;9.73;;
17141;SDS011;32805;53.556;9.944;2024-01-30T07:07:13;13.45;;;10.20;;
17141;SDS011;32805;53.556;9.944;2024-01-30T07:09:41;12.55;;;10.15;;
17141;SDS011;32805;53.556;9.944;2024-01-30T07:12:11;12.93;;;9.40;;
17141;SDS011;32805;53.556;9.944;2024-01-30T07:14:40;15.68;;;10.48;;
17141;SDS011;32805;53.556;9.944;2024-01-30T07:17:07;14.63;;;10.05;;
17141;SDS011;32805;53.556;9.944;2024-01-30T07:19:35;16.88;;;11.10;;
17141;SDS011;32805;53.556;9.944;2024-01-30T07:22:02;14.85;;;9.40;;
17141;SDS011;32805;53.556;9.944;2024-01-30T07:24:30;13.82;;;9.90;;
17141;SDS011;32805;53.556;9.944;2024-01-30T07:26:58;12.70;;;9.70;;
17141;SDS011;32805;53.556;9.944;2024-01-30T07:29:25;15.52;;;11.43;;
17141;SDS011;32805;53.556;9.944;2024-01-30T07:31:54;15.70;;;10.48;;
17141;SDS011;32805;53.556;9.944;2024-01-30T07:34:22;14.02;;;10.40;;
17141;SDS011;32805;53.556;9.944;2024-01-30T07:36:49;13.75;;;9.73;;
17141;SDS011;32805;53.556;9.944;2024-01-30T07:39:21;14.18;;;10.50;;
17141;SDS011;32805;53.556;9.944;2024-01-30T07:41:48;13.50;;;9.98;;
17141;SDS011;32805;53.556;9.944;2024-01-30T07:44:15;13.82;;;10.32;;
17141;SDS011;32805;53.556;9.944;2024-01-30T07:46:43;11.80;;;10.27;;
17141;SDS011;32805;53.556;9.944;2024-01-30T07:49:12;15.00;;;10.85;;
17141;SDS011;32805;53.556;9.944;2024-01-30T07:51:40;14.95;;;10.93;;
17141;SDS011;32805;53.556;9.944;2024-01-30T07:54:09;13.63;;;10.50;;
17141;SDS011;32805;53.556;9.944;2024-01-30T07:56:36;17.30;;;10.45;;
17141;SDS011;32805;53.556;9.944;2024-01-30T07:59:04;13.95;;;10.50;;
17141;SDS011;32805;53.556;9.944;2024-01-30T08:01:31;15.60;;;10.95;;
17141;SDS011;32805;53.556;9.944;2024-01-30T08:03:59;13.40;;;10.60;;
17141;SDS011;32805;53.556;9.944;2024-01-30T08:06:28;17.17;;;10.55;;
17141;SDS011;32805;53.556;9.944;2024-01-30T08:08:56;14.90;;;10.90;;
17141;SDS011;32805;53.556;9.944;2024-01-30T08:11:25;12.95;;;10.05;;
17141;SDS011;32805;53.556;9.944;2024-01-30T08:13:53;14.02;;;10.73;;
17141;SDS011;32805;53.556;9.944;2024-01-30T08:16:20;14.80;;;11.70;;
17141;SDS011;32805;53.556;9.944;2024-01-30T08:18:48;15.38;;;10.52;;
17141;SDS011;32805;53.556;9.944;2024-01-30T08:21:16;13.85;;;10.52;;
17141;SDS011;32805;53.556;9.944;2024-01-30T08:23:45;16.65;;;10.60;;
17141;SDS011;32805;53.556;9.944;2024-01-30T08:26:13;14.05;;;10.77;;
17141;SDS011;32805;53.556;9.944;2024-01-30T08:28:40;14.52;;;10.65;;
17141;SDS011;32805;53.556;9.944;2024-01-30T08:31:09;15.65;;;11.10;;
17141;SDS011;32805;53.556;9.944;2024-01-30T08:33:37;16.98;;;10.50;;
17141;SDS011;32805;53.556;9.944;2024-01-30T08:36:07;18.20;;;12.65;;
17141;SDS011;32805;53.556;9.944;2024-01-30T08:38:35;15.90;;;11.38;;
17141;SDS011;32805;53.556;9.944;2024-01-30T08:41:04;12.35;;;10.20;;
17141;SDS011;32805;53.556;9.944;2024-01-30T08:43:31;16.23;;;11.32;;
17141;SDS011;32805;53.556;9.944;2024-01-30T08:45:59;17.77;;;10.90;;
17141;SDS011;32805;53.556;9.944;2024-01-30T08:48:27;15.38;;;10.70;;
17141;SDS011;32805;53.556;9.944;2024-01-30T08:50:55;15.80;;;11.75;;
17141;SDS011;32805;53.556;9.944;2024-01-30T08:53:23;14.90;;;11.25;;
17141;SDS011;32805;53.556;9.944;2024-01-30T08:55:51;16.50;;;11.38;;
17141;SDS011;32805;53.556;9.944;2024-01-30T08:58:20;15.55;;;11.75;;
17141;SDS011;32805;53.556;9.944;2024-01-30T09:00:47;19.80;;;12.15;;
17141;SDS011;32805;53.556;9.944;2024-01-30T09:03:15;16.77;;;12.95;;
17141;SDS011;32805;53.556;9.944;2024-01-30T09:05:42;14.80;;;11.57;;
17141;SDS011;32805;53.556;9.944;2024-01-30T09:08:10;16.38;;;12.18;;
17141;SDS011;32805;53.556;9.944;2024-01-30T09:10:38;16.45;;;12.07;;
17141;SDS011;32805;53.556;9.944;2024-01-30T09:13:05;20.15;;;13.80;;
17141;SDS011;32805;53.556;9.944;2024-01-30T09:15:34;15.27;;;11.52;;
17141;SDS011;32805;53.556;9.944;2024-01-30T09:18:02;12.65;;;10.52;;
17141;SDS011;32805;53.556;9.944;2024-01-30T09:20:30;15.20;;;11.02;;
17141;SDS011;32805;53.556;9.944;2024-01-30T09:23:00;15.15;;;11.65;;
17141;SDS011;32805;53.556;9.944;2024-01-30T09:25:28;14.30;;;11.43;;
17141;SDS011;32805;53.556;9.944;2024-01-30T09:27:55;13.45;;;11.50;;
17141;SDS011;32805;53.556;9.944;2024-01-30T09:30:23;16.95;;;10.65;;
17141;SDS011;32805;53.556;9.944;2024-01-30T09:32:52;16.23;;;10.52;;
17141;SDS011;32805;53.556;9.944;2024-01-30T09:35:19;16.13;;;10.88;;
17141;SDS011;32805;53.556;9.944;2024-01-30T09:37:47;14.60;;;10.73;;
17141;SDS011;32805;53.556;9.944;2024-01-30T09:40:15;16.08;;;11.75;;
17141;SDS011;32805;53.556;9.944;2024-01-30T09:42:46;15.23;;;10.88;;
17141;SDS011;32805;53.556;9.944;2024-01-30T09:45:14;17.25;;;11.45;;
17141;SDS011;32805;53.556;9.944;2024-01-30T09:47:43;13.70;;;11.13;;
17141;SDS011;32805;53.556;9.944;2024-01-30T09:50:12;19.90;;;12.30;;
17141;SDS011;32805;53.556;9.944;2024-01-30T09:52:40;16.25;;;12.55;;
17141;SDS011;32805;53.556;9.944;2024-01-30T09:55:12;17.80;;;11.50;;
17141;SDS011;32805;53.556;9.944;2024-01-30T09:57:41;17.30;;;12.23;;
17141;SDS011;32805;53.556;9.944;2024-01-30T10:00:09;20.02;;;11.85;;
17141;SDS011;32805;53.556;9.944;2024-01-30T10:02:38;16.25;;;12.88;;
17141;SDS011;32805;53.556;9.944;2024-01-30T10:05:07;14.95;;;11.50;;
17141;SDS011;32805;53.556;9.944;2024-01-30T10:07:36;17.67;;;12.10;;
17141;SDS011;32805;53.556;9.944;2024-01-30T10:10:05;20.50;;;12.20;;
17141;SDS011;32805;53.556;9.944;2024-01-30T10:12:33;16.88;;;12.65;;
17141;SDS011;32805;53.556;9.944;2024-01-30T10:15:00;13.57;;;10.98;;
17141;SDS011;32805;53.556;9.944;2024-01-30T10:17:28;16.63;;;11.60;;
17141;SDS011;32805;53.556;9.944;2024-01-30T10:19:59;16.02;;;12.20;;
17141;SDS011;32805;53.556;9.944;2024-01-30T10:22:28;14.82;;;10.90;;
17141;SDS011;32805;53.556;9.944;2024-01-30T10:24:57;16.58;;;11.85;;
17141;SDS011;32805;53.556;9.944;2024-01-30T10:27:31;15.90;;;10.50;;
17141;SDS011;32805;53.556;9.944;2024-01-30T10:29:58;14.18;;;11.70;;
17141;SDS011;32805;53.556;9.944;2024-01-30T10:32:26;15.20;;;10.98;;
17141;SDS011;32805;53.556;9.944;2024-01-30T10:34:54;16.00;;;12.02;;
17141;SDS011;32805;53.556;9.944;2024-01-30T10:37:22;18.40;;;11.80;;
17141;SDS011;32805;53.556;9.944;2024-01-30T10:39:53;15.55;;;11.68;;
17141;SDS011;32805;53.556;9.944;2024-01-30T10:42:25;15.40;;;11.95;;
17141;SDS011;32805;53.556;9.944;2024-01-30T10:44:56;19.15;;;12.63;;
17141;SDS011;32805;53.556;9.944;2024-01-30T10:47:25;11.88;;;10.60;;
17141;SDS011;32805;53.556;9.944;2024-01-30T10:49:53;14.63;;;11.52;;
17141;SDS011;32805;53.556;9.944;2024-01-30T10:52:22;15.57;;;12.05;;
17141;SDS011;32805;53.556;9.944;2024-01-30T10:54:51;16.80;;;11.57;;
17141;SDS011;32805;53.556;9.944;2024-01-30T10:57:19;17.05;;;11.80;;
17141;SDS011;32805;53.556;9.944;2024-01-30T10:59:51;16.23;;;12.52;;
17141;SDS011;32805;53.556;9.944;2024-01-30T11:02:20;18.50;;;12.13;;
17141;SDS011;32805;53.556;9.944;2024-01-30T11:04:50;12.85;;;10.98;;
17141;SDS011;32805;53.556;9.944;2024-01-30T11:07:24;14.63;;;11.98;;
17141;SDS011;32805;53.556;9.944;2024-01-30T11:09:52;14.13;;;11.38;;
17141;SDS011;32805;53.556;9.944;2024-01-30T11:12:23;17.13;;;11.93;;
17141;SDS011;32805;53.556;9.944;2024-01-30T11:15:02;19.90;;;12.10;;
17141;SDS011;32805;53.556;9.944;2024-01-30T11:17:41;14.60;;;10.73;;
17141;SDS011;32805;53.556;9.944;2024-01-30T11:20:12;16.02;;;11.63;;
17141;SDS011;32805;53.556;9.944;2024-01-30T11:22:42;13.18;;;10.07;;
17141;SDS011;32805;53.556;9.944;2024-01-30T11:25:11;17.50;;;11.43;;
17141;SDS011;32805;53.556;9.944;2024-01-30T11:27:40;13.02;;;10.25;;
17141;SDS011;32805;53.556;9.944;2024-01-30T11:30:10;13.77;;;11.68;;
17141;SDS011;32805;53.556;9.944;2024-01-30T11:32:38;12.95;;;10.43;;
17141;SDS011;32805;53.556;9.944;2024-01-30T11:35:05;14.27;;;10.93;;
17141;SDS011;32805;53.556;9.944;2024-01-30T11:37:36;15.52;;;11.02;;
17141;SDS011;32805;53.556;9.944;2024-01-30T11:40:04;14.88;;;11.00;;
17141;SDS011;32805;53.556;9.944;2024-01-30T11:42:32;18.45;;;11.70;;
17141;SDS011;32805;53.556;9.944;2024-01-30T11:45:00;13.27;;;10.35;;
17141;SDS011;32805;53.556;9.944;2024-01-30T11:47:30;14.95;;;11.20;;
17141;SDS011;32805;53.556;9.944;2024-01-30T11:49:58;13.63;;;10.25;;
17141;SDS011;32805;53.556;9.944;2024-01-30T11:52:27;14.25;;;10.00;;
17141;SDS011;32805;53.556;9.944;2024-01-30T11:54:55;13.32;;;9.60;;
17141;SDS011;32805;53.556;9.944;2024-01-30T11:57:23;18.05;;;10.02;;
17141;SDS011;32805;53.556;9.944;2024-01-30T11:59:51;16.90;;;10.18;;
17141;SDS011;32805;53.556;9.944;2024-01-30T12:02:18;12.57;;;9.18;;
17141;SDS011;32805;53.556;9.944;2024-01-30T12:04:47;13.38;;;8.98;;
17141;SDS011;32805;53.556;9.944;2024-01-30T12:07:15;10.25;;;8.60;;
17141;SDS011;32805;53.556;9.944;2024-01-30T12:09:51;14.15;;;8.98;;
17141;SDS011;32805;53.556;9.944;2024-01-30T12:12:22;12.60;;;9.23;;
17141;SDS011;32805;53.556;9.944;2024-01-30T12:14:50;11.52;;;8.88;;
17141;SDS011;32805;53.556;9.944;2024-01-30T12:17:26;12.65;;;9.32;;
17141;SDS011;32805;53.556;9.944;2024-01-30T12:20:03;13.82;;;8.55;;
17141;SDS011;32805;53.556;9.944;2024-01-30T12:22:33;11.45;;;8.15;;
17141;SDS011;32805;53.556;9.944;2024-01-30T12:25:03;11.63;;;8.30;;
17141;SDS011;32805;53.556;9.944;2024-01-30T12:27:31;12.35;;;8.80;;
17141;SDS011;32805;53.556;9.944;2024-01-30T12:29:59;12.23;;;8.88;;
17141;SDS011;32805;53.556;9.944;2024-01-30T12:32:27;11.25;;;7.90;;
17141;SDS011;32805;53.556;9.944;2024-01-30T12:34:55;11.73;;;8.00;;
17141;SDS011;32805;53.556;9.944;2024-01-30T12:37:29;13.13;;;8.98;;
17141;SDS011;32805;53.556;9.944;2024-01-30T12:39:56;11.82;;;8.07;;
17141;SDS011;32805;53.556;9.944;2024-01-30T12:42:24;12.05;;;8.70;;
17141;SDS011;32805;53.556;9.944;2024-01-30T12:44:54;13.27;;;9.23;;
17141;SDS011;32805;53.556;9.944;2024-01-30T12:47:21;12.30;;;9.23;;
17141;SDS011;32805;53.556;9.944;2024-01-30T12:49:49;15.07;;;9.23;;
17141;SDS011;32805;53.556;9.944;2024-01-30T12:52:20;13.15;;;9.60;;
17141;SDS011;32805;53.556;9.944;2024-01-30T12:54:49;10.40;;;8.98;;
17141;SDS011;32805;53.556;9.944;2024-01-30T12:57:17;11.68;;;8.65;;
17141;SDS011;32805;53.556;9.944;2024-01-30T12:59:45;10.68;;;8.82;;
17141;SDS011;32805;53.556;9.944;2024-01-30T13:02:13;11.50;;;8.32;;
17141;SDS011;32805;53.556;9.944;2024-01-30T13:04:40;10.65;;;8.10;;
17141;SDS011;32805;53.556;9.944;2024-01-30T13:07:10;12.25;;;9.02;;
17141;SDS011;32805;53.556;9.944;2024-01-30T13:09:38;13.80;;;9.35;;
17141;SDS011;32805;53.556;9.944;2024-01-30T13:12:07;11.80;;;8.50;;
17141;SDS011;32805;53.556;9.944;2024-01-30T13:14:34;9.55;;;8.27;;
17141;SDS011;32805;53.556;9.944;2024-01-30T13:17:02;12.75;;;8.77;;
17141;SDS011;32805;53.556;9.944;2024-01-30T13:19:30;12.00;;;8.00;;
17141;SDS011;32805;53.556;9.944;2024-01-30T13:21:57;13.10;;;9.05;;
17141;SDS011;32805;53.556;9.944;2024-01-30T13:24:25;12.18;;;9.20;;
17141;SDS011;32805;53.556;9.944;2024-01-30T13:26:53;10.23;;;8.30;;
17141;SDS011;32805;53.556;9.944;2024-01-30T13:29:22;10.98;;;8.15;;
17141;SDS011;32805;53.556;9.944;2024-01-30T13:31:49;11.38;;;8.32;;
17141;SDS011;32805;53.556;9.944;2024-01-30T13:34:17;12.88;;;9.02;;
17141;SDS011;32805;53.556;9.944;2024-01-30T13:36:44;12.05;;;8.70;;
17141;SDS011;32805;53.556;9.944;2024-01-30T13:39:12;10.57;;;9.30;;
17141;SDS011;32805;53.556;9.944;2024-01-30T13:41:41;11.88;;;9.02;;
17141;SDS011;32805;53.556;9.944;2024-01-30T13:44:08;16.35;;;9.15;;
17141;SDS011;32805;53.556;9.944;2024-01-30T13:46:40;11.63;;;8.63;;
17141;SDS011;32805;53.556;9.944;2024-01-30T13:49:08;11.68;;;9.18;;
17141;SDS011;32805;53.556;9.944;2024-01-30T13:51:35;13.27;;;9.20;;
17141;SDS011;32805;53.556;9.944;2024-01-30T13:54:03;12.98;;;8.82;;
17141;SDS011;32805;53.556;9.944;2024-01-30T13:56:31;12.05;;;9.10;;
17141;SDS011;32805;53.556;9.944;2024-01-30T13:58:58;13.27;;;8.65;;
17141;SDS011;32805;53.556;9.944;2024-01-30T14:01:27;11.10;;;8.50;;
17141;SDS011;32805;53.556;9.944;2024-01-30T14:03:57;9.73;;;8.02;;
17141;SDS011;32805;53.556;9.944;2024-01-30T14:06:24;11.77;;;8.93;;
17141;SDS011;32805;53.556;9.944;2024-01-30T14:08:52;13.80;;;8.52;;
17141;SDS011;32805;53.556;9.944;2024-01-30T14:11:29;13.95;;;8.85;;
17141;SDS011;32805;53.556;9.944;2024-01-30T14:13:57;11.00;;;8.30;;
17141;SDS011;32805;53.556;9.944;2024-01-30T14:16:25;15.20;;;9.32;;
17141;SDS011;32805;53.556;9.944;2024-01-30T14:18:52;13.93;;;9.32;;
17141;SDS011;32805;53.556;9.944;2024-01-30T14:21:21;12.45;;;8.45;;
17141;SDS011;32805;53.556;9.944;2024-01-30T14:23:50;12.85;;;8.68;;
17141;SDS011;32805;53.556;9.944;2024-01-30T14:26:17;18.95;;;9.32;;
17141;SDS011;32805;53.556;9.944;2024-01-30T14:28:45;13.07;;;9.57;;
17141;SDS011;32805;53.556;9.944;2024-01-30T14:31:13;12.05;;;8.68;;
17141;SDS011;32805;53.556;9.944;2024-01-30T14:33:40;13.35;;;8.45;;
17141;SDS011;32805;53.556;9.944;2024-01-30T14:36:08;11.98;;;8.77;;
17141;SDS011;32805;53.556;9.944;2024-01-30T14:38:37;11.55;;;8.85;;